TimeCOT,TemperatureF,Dew PointF,Humidity,Sea Level PressureIn,VisibilityMPH,Wind Direction,Wind SpeedMPH,Gust SpeedMPH,PrecipitationIn,Events,Conditions,WindDirDegrees,DateUTC
6:00 AM,62.6,60.8,94,30.00,6.2,Calm,Calm,-,N/A,,Scattered Clouds,0,2013-01-02 11:00:00
7:00 AM,62,58,84,,9,Calm,Calm,,,,Haze,,2013-01-02 12:00:00
7:00 AM,62.6,59.0,88,30.02,6.2,Calm,Calm,-,N/A,,Scattered Clouds,0,2013-01-02 12:00:00
8:00 AM,66.2,60.8,83,30.04,6.2,Calm,Calm,-,N/A,,Scattered Clouds,0,2013-01-02 13:00:00
9:00 AM,69.8,62.6,78,30.05,6.2,Calm,Calm,-,N/A,,Scattered Clouds,0,2013-01-02 14:00:00
10:00 AM,74,64,62,,12,Calm,Calm,,,,Haze,,2013-01-02 15:00:00
10:00 AM,73.4,64.4,73,30.04,6.2,Calm,Calm,-,N/A,,Scattered Clouds,0,2013-01-02 15:00:00
11:00 AM,78.8,62.6,57,30.02,6.2,West,4.6,-,N/A,,Scattered Clouds,270,2013-01-02 16:00:00
12:00 PM,80.6,64.4,58,30.00,6.2,WNW,4.6,-,N/A,,Scattered Clouds,300,2013-01-02 17:00:00
1:00 PM,80.6,64.4,58,29.98,6.2,Calm,Calm,-,N/A,,Mostly Cloudy,0,2013-01-02 18:00:00
2:00 PM,82.4,64.4,54,29.95,6.2,West,3.5,-,N/A,,Mostly Cloudy,270,2013-01-02 19:00:00
3:00 PM,82.4,64.4,54,29.92,6.2,West,3.5,-,N/A,,Mostly Cloudy,260,2013-01-02 20:00:00
4:00 PM,83,64,43,,12,Calm,Calm,,,,Haze,,2013-01-02 21:00:00
4:00 PM,84.2,64.4,51,29.91,6.2,Calm,Calm,-,N/A,,Scattered Clouds,0,2013-01-02 21:00:00
5:00 PM,78.8,64.4,61,29.92,6.2,NNE,5.8,-,N/A,,Scattered Clouds,30,2013-01-02 22:00:00
6:00 PM,77.0,64.4,65,29.93,6.2,Calm,Calm,-,N/A,,Scattered Clouds,0,2013-01-02 23:00:00
7:00 PM,74,65,67,,12,Calm,Calm,,,,Haze,,2013-01-03 00:00:00
7:00 PM,75.2,64.4,69,29.95,6.2,Calm,Calm,-,N/A,,Scattered Clouds,0,2013-01-03 00:00:00
8:00 PM,71.6,64.4,78,29.98,6.2,Calm,Calm,-,N/A,,Scattered Clouds,0,2013-01-03 01:00:00
9:00 PM,69.8,64.4,83,30.00,6.2,East,3.5,-,N/A,,Mostly Cloudy,100,2013-01-03 02:00:00
10:00 PM,69,64,81,,12,NNE,4.5,,,,Haze,30,2013-01-03 03:00:00
10:00 PM,69.8,64.4,83,30.03,6.2,NNE,3.5,-,N/A,,Scattered Clouds,30,2013-01-03 03:00:00
11:00 PM,68.0,64.4,88,30.04,6.2,Calm,Calm,-,N/A,,Scattered Clouds,0,2013-01-03 04:00:00